Terminal Aerodrome Forecast
Issued by NWS Grand Forks, ND

Home | Current Version | Previous Version | Text Only | Print | Product List | Glossary Off
Versions: 1 2 3 4 5 6 7 8 9 10 11 12 13

000
FTUS43 KFGF 191720
TAFFAR
TAF
KFAR 191720Z 1918/2018 19015G23KT P6SM FEW250
     FM200000 17010KT P6SM SKC
     FM201400 16015G23KT P6SM FEW200=

USA.gov is the U.S. government's official web portal to all federal, state and local government web resources and services.